sensor_id;sensor_type;location;lat;lon;timestamp;pressure;altitude;pressure_sealevel;temperature;humidity
46379;BME280;32084;42.254;22.744;2023-07-16T00:01:47;95413.88;;;23.06;96.83
46379;BME280;32084;42.254;22.744;2023-07-16T00:04:13;95421.72;;;22.84;97.96
46379;BME280;32084;42.254;22.744;2023-07-16T00:06:39;95411.06;;;22.83;98.56
46379;BME280;32084;42.254;22.744;2023-07-16T00:09:05;95416.31;;;22.96;97.75
46379;BME280;32084;42.254;22.744;2023-07-16T00:11:31;95421.22;;;23.06;97.63
46379;BME280;32084;42.254;22.744;2023-07-16T00:13:57;95418.66;;;23.11;96.56
46379;BME280;32084;42.254;22.744;2023-07-16T00:16:23;95422.34;;;23.16;96.43
46379;BME280;32084;42.254;22.744;2023-07-16T00:18:49;95415.66;;;23.12;96.88
46379;BME280;32084;42.254;22.744;2023-07-16T00:21:15;95411.41;;;22.86;97.56
46379;BME280;32084;42.254;22.744;2023-07-16T00:26:51;95406.81;;;22.98;96.94
46379;BME280;32084;42.254;22.744;2023-07-16T00:29:18;95408.78;;;22.79;98.40
46379;BME280;32084;42.254;22.744;2023-07-16T00:31:44;95409.66;;;22.61;99.29
46379;BME280;32084;42.254;22.744;2023-07-16T00:34:10;95413.47;;;22.72;99.31
46379;BME280;32084;42.254;22.744;2023-07-16T00:36:38;95413.19;;;22.80;98.95
46379;BME280;32084;42.254;22.744;2023-07-16T00:39:04;95414.88;;;22.93;97.95
46379;BME280;32084;42.254;22.744;2023-07-16T00:41:30;95407.41;;;23.00;97.89
46379;BME280;32084;42.254;22.744;2023-07-16T00:43:56;95415.00;;;22.98;97.05
46379;BME280;32084;42.254;22.744;2023-07-16T00:46:23;95415.78;;;22.87;97.49
46379;BME280;32084;42.254;22.744;2023-07-16T00:48:49;95416.16;;;22.91;97.18
46379;BME280;32084;42.254;22.744;2023-07-16T00:51:15;95405.69;;;23.06;96.24
46379;BME280;32084;42.254;22.744;2023-07-16T00:53:42;95408.81;;;22.91;97.31
46379;BME280;32084;42.254;22.744;2023-07-16T00:56:08;95411.47;;;22.68;97.89
46379;BME280;32084;42.254;22.744;2023-07-16T00:58:35;95408.97;;;22.66;98.77
46379;BME280;32084;42.254;22.744;2023-07-16T01:01:01;95408.50;;;22.69;98.42
46379;BME280;32084;42.254;22.744;2023-07-16T01:03:27;95404.88;;;22.57;98.47
46379;BME280;32084;42.254;22.744;2023-07-16T01:08:35;95414.44;;;22.48;99.69
46379;BME280;32084;42.254;22.744;2023-07-16T01:11:04;95405.91;;;22.74;97.95
46379;BME280;32084;42.254;22.744;2023-07-16T01:13:30;95394.56;;;22.77;97.12
46379;BME280;32084;42.254;22.744;2023-07-16T01:15:56;95397.28;;;22.77;97.21
46379;BME280;32084;42.254;22.744;2023-07-16T01:18:22;95397.88;;;22.49;98.69
46379;BME280;32084;42.254;22.744;2023-07-16T01:20:48;95397.97;;;22.42;99.82
46379;BME280;32084;42.254;22.744;2023-07-16T01:31:11;95394.63;;;22.03;100.00
46379;BME280;32084;42.254;22.744;2023-07-16T01:33:37;95397.19;;;22.17;100.00
46379;BME280;32084;42.254;22.744;2023-07-16T01:36:04;95393.72;;;22.47;97.86
46379;BME280;32084;42.254;22.744;2023-07-16T01:38:32;95391.75;;;22.54;97.66
46379;BME280;32084;42.254;22.744;2023-07-16T01:40:58;95401.13;;;22.58;97.13
46379;BME280;32084;42.254;22.744;2023-07-16T01:43:24;95395.75;;;22.51;97.20
46379;BME280;32084;42.254;22.744;2023-07-16T01:45:50;95407.97;;;22.30;98.17
46379;BME280;32084;42.254;22.744;2023-07-16T01:48:22;95409.50;;;22.19;98.23
46379;BME280;32084;42.254;22.744;2023-07-16T01:50:50;95407.53;;;22.08;99.67
46379;BME280;32084;42.254;22.744;2023-07-16T01:53:16;95407.31;;;22.10;99.19
46379;BME280;32084;42.254;22.744;2023-07-16T01:55:42;95407.78;;;22.07;99.24
46379;BME280;32084;42.254;22.744;2023-07-16T01:58:08;95409.31;;;22.02;99.47
46379;BME280;32084;42.254;22.744;2023-07-16T02:00:35;95393.84;;;21.96;100.00
46379;BME280;32084;42.254;22.744;2023-07-16T02:03:01;95405.59;;;21.97;100.00
46379;BME280;32084;42.254;22.744;2023-07-16T02:05:27;95403.22;;;22.00;100.00
46379;BME280;32084;42.254;22.744;2023-07-16T02:07:54;95401.97;;;22.03;99.99
46379;BME280;32084;42.254;22.744;2023-07-16T02:10:19;95404.91;;;22.01;99.80
46379;BME280;32084;42.254;22.744;2023-07-16T02:12:46;95403.72;;;21.97;100.00
46379;BME280;32084;42.254;22.744;2023-07-16T02:15:12;95403.63;;;21.86;100.00
46379;BME280;32084;42.254;22.744;2023-07-16T02:17:38;95413.19;;;21.70;100.00
46379;BME280;32084;42.254;22.744;2023-07-16T02:20:04;95402.44;;;21.56;100.00
46379;BME280;32084;42.254;22.744;2023-07-16T02:22:36;95409.22;;;21.72;100.00
46379;BME280;32084;42.254;22.744;2023-07-16T02:25:02;95419.78;;;21.80;100.00
46379;BME280;32084;42.254;22.744;2023-07-16T02:27:29;95418.38;;;21.78;100.00
46379;BME280;32084;42.254;22.744;2023-07-16T02:29:55;95423.16;;;21.57;100.00
46379;BME280;32084;42.254;22.744;2023-07-16T02:32:21;95419.66;;;21.43;100.00
46379;BME280;32084;42.254;22.744;2023-07-16T02:34:47;95421.31;;;21.51;100.00
46379;BME280;32084;42.254;22.744;2023-07-16T02:37:13;95418.16;;;21.54;100.00
46379;BME280;32084;42.254;22.744;2023-07-16T02:39:40;95423.59;;;21.54;100.00
46379;BME280;32084;42.254;22.744;2023-07-16T02:42:07;95422.94;;;21.59;100.00
46379;BME280;32084;42.254;22.744;2023-07-16T02:44:33;95423.81;;;21.53;100.00
46379;BME280;32084;42.254;22.744;2023-07-16T02:46:59;95421.78;;;21.41;100.00
46379;BME280;32084;42.254;22.744;2023-07-16T02:49:24;95417.72;;;21.57;100.00
46379;BME280;32084;42.254;22.744;2023-07-16T02:51:50;95420.16;;;21.66;100.00
46379;BME280;32084;42.254;22.744;2023-07-16T02:54:16;95420.53;;;21.69;100.00
46379;BME280;32084;42.254;22.744;2023-07-16T02:56:42;95418.72;;;21.63;100.00
46379;BME280;32084;42.254;22.744;2023-07-16T02:59:08;95425.16;;;21.69;100.00
46379;BME280;32084;42.254;22.744;2023-07-16T03:01:34;95422.09;;;21.58;100.00
46379;BME280;32084;42.254;22.744;2023-07-16T03:04:00;95424.03;;;21.51;100.00
46379;BME280;32084;42.254;22.744;2023-07-16T03:06:26;95423.31;;;21.62;100.00
46379;BME280;32084;42.254;22.744;2023-07-16T03:08:52;95418.09;;;21.61;100.00
46379;BME280;32084;42.254;22.744;2023-07-16T03:11:18;95421.56;;;21.50;100.00
46379;BME280;32084;42.254;22.744;2023-07-16T03:13:44;95419.06;;;21.41;100.00
46379;BME280;32084;42.254;22.744;2023-07-16T03:16:10;95429.03;;;21.54;100.00
46379;BME280;32084;42.254;22.744;2023-07-16T03:18:36;95426.19;;;21.68;100.00
46379;BME280;32084;42.254;22.744;2023-07-16T03:21:02;95424.06;;;21.70;100.00
46379;BME280;32084;42.254;22.744;2023-07-16T03:23:28;95428.31;;;21.66;100.00
46379;BME280;32084;42.254;22.744;2023-07-16T03:25:54;95422.31;;;21.57;100.00
46379;BME280;32084;42.254;22.744;2023-07-16T03:28:20;95423.41;;;21.49;100.00
46379;BME280;32084;42.254;22.744;2023-07-16T03:30:47;95425.09;;;21.50;100.00
46379;BME280;32084;42.254;22.744;2023-07-16T03:33:13;95420.34;;;21.39;100.00
46379;BME280;32084;42.254;22.744;2023-07-16T03:35:41;95427.94;;;21.30;100.00
46379;BME280;32084;42.254;22.744;2023-07-16T03:38:07;95427.63;;;21.20;100.00
46379;BME280;32084;42.254;22.744;2023-07-16T03:40:33;95429.66;;;21.24;100.00
46379;BME280;32084;42.254;22.744;2023-07-16T03:42:59;95433.34;;;21.37;100.00
46379;BME280;32084;42.254;22.744;2023-07-16T03:45:25;95435.69;;;21.58;100.00
46379;BME280;32084;42.254;22.744;2023-07-16T03:47:51;95439.50;;;21.76;100.00
46379;BME280;32084;42.254;22.744;2023-07-16T03:50:17;95448.38;;;21.90;100.00
46379;BME280;32084;42.254;22.744;2023-07-16T03:52:44;95448.81;;;21.87;100.00
46379;BME280;32084;42.254;22.744;2023-07-16T03:55:10;95441.03;;;21.90;100.00
46379;BME280;32084;42.254;22.744;2023-07-16T03:57:36;95446.09;;;21.87;100.00
46379;BME280;32084;42.254;22.744;2023-07-16T04:00:03;95449.72;;;21.80;100.00
46379;BME280;32084;42.254;22.744;2023-07-16T04:02:30;95449.50;;;21.82;100.00
46379;BME280;32084;42.254;22.744;2023-07-16T04:04:56;95457.53;;;21.95;100.00
46379;BME280;32084;42.254;22.744;2023-07-16T04:07:22;95460.34;;;22.07;100.00
46379;BME280;32084;42.254;22.744;2023-07-16T04:09:48;95470.56;;;22.12;100.00
46379;BME280;32084;42.254;22.744;2023-07-16T04:12:14;95474.22;;;22.24;100.00
46379;BME280;32084;42.254;22.744;2023-07-16T04:14:40;95473.00;;;22.20;100.00
46379;BME280;32084;42.254;22.744;2023-07-16T04:17:06;95471.59;;;22.36;100.00
46379;BME280;32084;42.254;22.744;2023-07-16T04:19:32;95473.56;;;22.47;100.00
46379;BME280;32084;42.254;22.744;2023-07-16T04:21:58;95480.75;;;22.60;100.00
46379;BME280;32084;42.254;22.744;2023-07-16T04:24:24;95475.34;;;22.72;100.00
46379;BME280;32084;42.254;22.744;2023-07-16T04:26:52;95477.22;;;22.90;100.00
46379;BME280;32084;42.254;22.744;2023-07-16T04:29:19;95474.69;;;23.07;100.00
46379;BME280;32084;42.254;22.744;2023-07-16T04:31:45;95474.44;;;23.38;96.76
46379;BME280;32084;42.254;22.744;2023-07-16T04:34:11;95476.97;;;23.64;94.49
46379;BME280;32084;42.254;22.744;2023-07-16T04:36:37;95479.88;;;23.81;93.83
46379;BME280;32084;42.254;22.744;2023-07-16T04:39:03;95479.31;;;23.90;94.06
46379;BME280;32084;42.254;22.744;2023-07-16T04:41:30;95471.34;;;24.01;92.07
46379;BME280;32084;42.254;22.744;2023-07-16T04:43:56;95482.97;;;24.08;91.91
46379;BME280;32084;42.254;22.744;2023-07-16T04:46:22;95489.63;;;24.12;91.82
46379;BME280;32084;42.254;22.744;2023-07-16T04:48:48;95486.75;;;24.19;91.31
46379;BME280;32084;42.254;22.744;2023-07-16T04:51:14;95485.56;;;24.26;90.50
46379;BME280;32084;42.254;22.744;2023-07-16T04:53:40;95487.44;;;24.38;91.10
46379;BME280;32084;42.254;22.744;2023-07-16T04:56:11;95487.94;;;24.34;90.45
46379;BME280;32084;42.254;22.744;2023-07-16T04:58:38;95490.19;;;24.38;91.27
46379;BME280;32084;42.254;22.744;2023-07-16T05:01:04;95490.81;;;24.51;90.90
46379;BME280;32084;42.254;22.744;2023-07-16T05:03:30;95491.47;;;24.47;90.64
46379;BME280;32084;42.254;22.744;2023-07-16T05:05:56;95488.44;;;24.55;88.43
46379;BME280;32084;42.254;22.744;2023-07-16T05:08:22;95494.91;;;24.78;88.02
46379;BME280;32084;42.254;22.744;2023-07-16T05:10:48;95487.63;;;24.83;88.03
46379;BME280;32084;42.254;22.744;2023-07-16T05:13:14;95488.63;;;25.06;87.72
46379;BME280;32084;42.254;22.744;2023-07-16T05:15:43;95501.34;;;25.12;86.69
46379;BME280;32084;42.254;22.744;2023-07-16T05:18:09;95495.66;;;25.02;87.29
46379;BME280;32084;42.254;22.744;2023-07-16T05:20:35;95492.72;;;24.91;88.63
46379;BME280;32084;42.254;22.744;2023-07-16T05:23:01;95498.03;;;24.98;88.04
46379;BME280;32084;42.254;22.744;2023-07-16T05:25:27;95502.44;;;24.99;86.83
46379;BME280;32084;42.254;22.744;2023-07-16T05:27:53;95498.69;;;25.17;87.07
46379;BME280;32084;42.254;22.744;2023-07-16T05:30:19;95498.94;;;25.16;87.11
46379;BME280;32084;42.254;22.744;2023-07-16T05:32:45;95496.81;;;25.46;86.94
46379;BME280;32084;42.254;22.744;2023-07-16T05:35:11;95494.19;;;25.40;86.49
46379;BME280;32084;42.254;22.744;2023-07-16T05:37:37;95503.97;;;25.36;85.09
46379;BME280;32084;42.254;22.744;2023-07-16T05:40:03;95499.34;;;25.36;86.04
46379;BME280;32084;42.254;22.744;2023-07-16T05:42:30;95503.00;;;25.42;83.65
46379;BME280;32084;42.254;22.744;2023-07-16T05:44:56;95509.50;;;25.52;84.04
46379;BME280;32084;42.254;22.744;2023-07-16T05:47:22;95508.00;;;25.62;83.96
46379;BME280;32084;42.254;22.744;2023-07-16T05:49:48;95498.81;;;25.68;84.75
46379;BME280;32084;42.254;22.744;2023-07-16T05:52:14;95507.69;;;25.75;82.71
46379;BME280;32084;42.254;22.744;2023-07-16T05:54:40;95501.56;;;25.85;84.44
46379;BME280;32084;42.254;22.744;2023-07-16T05:57:08;95512.44;;;26.14;83.41
46379;BME280;32084;42.254;22.744;2023-07-16T05:59:34;95515.00;;;26.37;82.40
46379;BME280;32084;42.254;22.744;2023-07-16T06:02:03;95512.16;;;26.49;81.31
46379;BME280;32084;42.254;22.744;2023-07-16T06:04:29;95512.97;;;26.49;82.45
46379;BME280;32084;42.254;22.744;2023-07-16T06:06:56;95514.31;;;26.47;81.26
46379;BME280;32084;42.254;22.744;2023-07-16T06:09:22;95516.81;;;26.65;78.91
46379;BME280;32084;42.254;22.744;2023-07-16T06:11:48;95525.69;;;26.95;76.47
46379;BME280;32084;42.254;22.744;2023-07-16T06:14:14;95522.94;;;27.17;78.38
46379;BME280;32084;42.254;22.744;2023-07-16T06:16:41;95517.88;;;27.31;78.05
46379;BME280;32084;42.254;22.744;2023-07-16T06:19:07;95514.09;;;27.37;75.98
46379;BME280;32084;42.254;22.744;2023-07-16T06:21:33;95516.09;;;27.41;74.51
46379;BME280;32084;42.254;22.744;2023-07-16T06:23:59;95513.78;;;27.33;76.42
46379;BME280;32084;42.254;22.744;2023-07-16T06:26:25;95514.34;;;27.35;77.16
46379;BME280;32084;42.254;22.744;2023-07-16T06:28:51;95512.31;;;27.48;78.48
46379;BME280;32084;42.254;22.744;2023-07-16T06:31:17;95512.41;;;27.58;76.37
46379;BME280;32084;42.254;22.744;2023-07-16T06:33:44;95502.31;;;27.91;73.58
46379;BME280;32084;42.254;22.744;2023-07-16T06:36:12;95504.72;;;27.87;74.15
46379;BME280;32084;42.254;22.744;2023-07-16T06:38:38;95504.09;;;27.80;75.98
46379;BME280;32084;42.254;22.744;2023-07-16T06:41:04;95503.56;;;27.83;75.03
46379;BME280;32084;42.254;22.744;2023-07-16T06:43:30;95496.41;;;27.82;72.30
46379;BME280;32084;42.254;22.744;2023-07-16T06:45:56;95497.22;;;27.82;73.90
46379;BME280;32084;42.254;22.744;2023-07-16T06:48:23;95496.25;;;27.94;72.90
46379;BME280;32084;42.254;22.744;2023-07-16T06:50:51;95496.06;;;28.06;73.12
46379;BME280;32084;42.254;22.744;2023-07-16T06:53:18;95494.69;;;28.03;73.57
46379;BME280;32084;42.254;22.744;2023-07-16T06:55:44;95496.94;;;28.11;72.31
46379;BME280;32084;42.254;22.744;2023-07-16T06:58:10;95487.97;;;28.26;69.64
46379;BME280;32084;42.254;22.744;2023-07-16T07:00:36;95487.50;;;28.34;72.11
46379;BME280;32084;42.254;22.744;2023-07-16T07:03:03;95495.31;;;28.53;73.16
46379;BME280;32084;42.254;22.744;2023-07-16T07:05:29;95491.22;;;28.55;69.91
46379;BME280;32084;42.254;22.744;2023-07-16T07:07:54;95490.69;;;28.58;71.14
46379;BME280;32084;42.254;22.744;2023-07-16T07:10:20;95485.19;;;28.58;72.13
46379;BME280;32084;42.254;22.744;2023-07-16T07:12:47;95483.38;;;28.85;72.00
46379;BME280;32084;42.254;22.744;2023-07-16T07:15:13;95482.63;;;28.99;70.38
46379;BME280;32084;42.254;22.744;2023-07-16T07:17:39;95477.13;;;29.10;70.37
46379;BME280;32084;42.254;22.744;2023-07-16T07:20:05;95481.88;;;29.19;67.41
46379;BME280;32084;42.254;22.744;2023-07-16T07:22:32;95480.44;;;29.12;70.66
46379;BME280;32084;42.254;22.744;2023-07-16T07:24:58;95485.75;;;29.18;68.23
46379;BME280;32084;42.254;22.744;2023-07-16T07:27:24;95486.09;;;29.43;67.26
46379;BME280;32084;42.254;22.744;2023-07-16T07:29:50;95485.56;;;29.71;66.18
46379;BME280;32084;42.254;22.744;2023-07-16T07:32:20;95482.03;;;29.81;68.07
46379;BME280;32084;42.254;22.744;2023-07-16T07:34:47;95479.53;;;29.80;67.79
46379;BME280;32084;42.254;22.744;2023-07-16T07:37:13;95485.28;;;29.68;68.21
46379;BME280;32084;42.254;22.744;2023-07-16T07:39:40;95477.31;;;29.71;66.83
46379;BME280;32084;42.254;22.744;2023-07-16T07:42:06;95478.72;;;29.79;67.86
46379;BME280;32084;42.254;22.744;2023-07-16T07:44:32;95477.56;;;29.65;67.43
46379;BME280;32084;42.254;22.744;2023-07-16T07:46:58;95478.09;;;29.41;68.44
46379;BME280;32084;42.254;22.744;2023-07-16T07:49:24;95469.56;;;29.53;68.77
46379;BME280;32084;42.254;22.744;2023-07-16T07:51:50;95465.16;;;29.62;68.44
46379;BME280;32084;42.254;22.744;2023-07-16T07:54:16;95475.94;;;29.89;68.41
46379;BME280;32084;42.254;22.744;2023-07-16T07:56:45;95466.56;;;30.36;66.65
46379;BME280;32084;42.254;22.744;2023-07-16T07:59:11;95472.56;;;30.64;66.01
46379;BME280;32084;42.254;22.744;2023-07-16T08:01:37;95479.44;;;30.67;66.16
46379;BME280;32084;42.254;22.744;2023-07-16T08:04:03;95477.22;;;30.69;66.02
46379;BME280;32084;42.254;22.744;2023-07-16T08:06:29;95475.59;;;30.63;65.55
46379;BME280;32084;42.254;22.744;2023-07-16T08:08:55;95475.34;;;30.59;67.96
46379;BME280;32084;42.254;22.744;2023-07-16T08:11:21;95472.59;;;30.54;66.07
46379;BME280;32084;42.254;22.744;2023-07-16T08:13:47;95475.06;;;30.61;67.60
46379;BME280;32084;42.254;22.744;2023-07-16T08:16:15;95472.00;;;30.67;67.14
46379;BME280;32084;42.254;22.744;2023-07-16T08:18:41;95467.28;;;30.78;65.44
46379;BME280;32084;42.254;22.744;2023-07-16T08:21:07;95478.34;;;30.68;65.24
46379;BME280;32084;42.254;22.744;2023-07-16T08:23:33;95473.13;;;30.66;67.06
46379;BME280;32084;42.254;22.744;2023-07-16T08:25:59;95474.25;;;30.55;67.11
46379;BME280;32084;42.254;22.744;2023-07-16T08:28:25;95473.38;;;30.70;65.38
46379;BME280;32084;42.254;22.744;2023-07-16T08:30:51;95475.22;;;31.00;67.61
46379;BME280;32084;42.254;22.744;2023-07-16T08:33:17;95463.81;;;31.17;65.96
46379;BME280;32084;42.254;22.744;2023-07-16T08:35:43;95467.75;;;31.06;66.21
46379;BME280;32084;42.254;22.744;2023-07-16T08:38:09;95464.66;;;31.18;66.12
46379;BME280;32084;42.254;22.744;2023-07-16T08:40:38;95463.66;;;31.43;66.61
46379;BME280;32084;42.254;22.744;2023-07-16T08:43:05;95464.09;;;31.65;64.42
46379;BME280;32084;42.254;22.744;2023-07-16T08:45:32;95454.53;;;31.87;63.95
46379;BME280;32084;42.254;22.744;2023-07-16T08:48:02;95460.00;;;31.97;64.50
46379;BME280;32084;42.254;22.744;2023-07-16T08:50:28;95455.72;;;31.76;63.53
46379;BME280;32084;42.254;22.744;2023-07-16T08:52:54;95456.56;;;31.76;65.53
46379;BME280;32084;42.254;22.744;2023-07-16T08:55:21;95457.34;;;31.82;64.48
46379;BME280;32084;42.254;22.744;2023-07-16T08:57:47;95457.75;;;31.99;65.41
46379;BME280;32084;42.254;22.744;2023-07-16T09:00:13;95446.97;;;32.03;63.02
46379;BME280;32084;42.254;22.744;2023-07-16T09:02:40;95452.28;;;31.89;64.18
46379;BME280;32084;42.254;22.744;2023-07-16T09:05:07;95460.28;;;31.96;64.84
46379;BME280;32084;42.254;22.744;2023-07-16T09:07:35;95453.03;;;32.00;63.43
46379;BME280;32084;42.254;22.744;2023-07-16T09:10:02;95446.91;;;31.74;59.84
46379;BME280;32084;42.254;22.744;2023-07-16T09:12:28;95451.03;;;31.76;60.59
46379;BME280;32084;42.254;22.744;2023-07-16T09:14:55;95448.94;;;31.97;61.20
46379;BME280;32084;42.254;22.744;2023-07-16T09:17:21;95441.19;;;32.28;60.49
46379;BME280;32084;42.254;22.744;2023-07-16T09:19:49;95442.81;;;32.35;61.45
46379;BME280;32084;42.254;22.744;2023-07-16T09:22:16;95448.34;;;32.35;60.69
46379;BME280;32084;42.254;22.744;2023-07-16T09:24:44;95432.50;;;32.11;59.77
46379;BME280;32084;42.254;22.744;2023-07-16T09:27:11;95433.78;;;32.24;59.98
46379;BME280;32084;42.254;22.744;2023-07-16T09:29:37;95432.97;;;32.23;58.11
46379;BME280;32084;42.254;22.744;2023-07-16T09:32:04;95438.66;;;32.32;55.37
46379;BME280;32084;42.254;22.744;2023-07-16T09:34:31;95433.03;;;32.42;52.74
46379;BME280;32084;42.254;22.744;2023-07-16T09:36:57;95424.09;;;32.51;56.17
46379;BME280;32084;42.254;22.744;2023-07-16T09:39:23;95422.25;;;32.65;56.81
46379;BME280;32084;42.254;22.744;2023-07-16T09:41:50;95423.63;;;32.67;59.55
46379;BME280;32084;42.254;22.744;2023-07-16T09:44:16;95427.19;;;32.73;58.42
46379;BME280;32084;42.254;22.744;2023-07-16T09:46:43;95418.34;;;32.71;56.35
46379;BME280;32084;42.254;22.744;2023-07-16T09:49:09;95418.34;;;32.71;58.12
46379;BME280;32084;42.254;22.744;2023-07-16T09:51:36;95422.81;;;32.67;58.89
46379;BME280;32084;42.254;22.744;2023-07-16T09:54:02;95422.22;;;32.70;59.78
46379;BME280;32084;42.254;22.744;2023-07-16T09:56:34;95418.56;;;32.75;57.01
46379;BME280;32084;42.254;22.744;2023-07-16T09:59:01;95410.03;;;32.71;55.31
46379;BME280;32084;42.254;22.744;2023-07-16T10:01:28;95419.19;;;32.91;56.96
46379;BME280;32084;42.254;22.744;2023-07-16T10:03:55;95409.47;;;32.93;56.75
46379;BME280;32084;42.254;22.744;2023-07-16T10:06:21;95407.38;;;33.04;57.82
46379;BME280;32084;42.254;22.744;2023-07-16T10:08:50;95404.56;;;33.09;57.27
46379;BME280;32084;42.254;22.744;2023-07-16T10:11:16;95409.97;;;33.19;56.66
46379;BME280;32084;42.254;22.744;2023-07-16T10:13:43;95400.31;;;33.17;57.31
46379;BME280;32084;42.254;22.744;2023-07-16T10:16:19;95407.88;;;33.11;54.51
46379;BME280;32084;42.254;22.744;2023-07-16T10:18:49;95388.69;;;32.96;56.83
46379;BME280;32084;42.254;22.744;2023-07-16T10:21:21;95395.72;;;32.88;54.47
46379;BME280;32084;42.254;22.744;2023-07-16T10:23:55;95393.78;;;33.07;54.83
46379;BME280;32084;42.254;22.744;2023-07-16T10:26:25;95400.84;;;33.19;52.92
46379;BME280;32084;42.254;22.744;2023-07-16T10:28:52;95387.00;;;33.38;54.24
46379;BME280;32084;42.254;22.744;2023-07-16T10:31:21;95390.72;;;33.47;56.66
46379;BME280;32084;42.254;22.744;2023-07-16T10:34:03;95392.06;;;33.31;55.38
46379;BME280;32084;42.254;22.744;2023-07-16T10:36:37;95380.13;;;33.35;55.37
46379;BME280;32084;42.254;22.744;2023-07-16T10:39:03;95383.91;;;33.39;56.37
46379;BME280;32084;42.254;22.744;2023-07-16T10:41:30;95384.22;;;33.38;55.09
46379;BME280;32084;42.254;22.744;2023-07-16T10:43:56;95378.44;;;33.34;53.88
46379;BME280;32084;42.254;22.744;2023-07-16T10:46:22;95380.53;;;33.42;56.67
46379;BME280;32084;42.254;22.744;2023-07-16T10:48:48;95381.75;;;33.36;53.53
46379;BME280;32084;42.254;22.744;2023-07-16T10:51:15;95372.63;;;33.36;54.20
46379;BME280;32084;42.254;22.744;2023-07-16T10:53:42;95378.88;;;33.60;49.50
46379;BME280;32084;42.254;22.744;2023-07-16T10:56:08;95368.66;;;33.75;52.84
46379;BME280;32084;42.254;22.744;2023-07-16T10:58:38;95370.50;;;33.98;52.30
46379;BME280;32084;42.254;22.744;2023-07-16T11:01:08;95370.56;;;33.93;53.44
46379;BME280;32084;42.254;22.744;2023-07-16T11:03:34;95373.34;;;33.93;52.37
46379;BME280;32084;42.254;22.744;2023-07-16T11:06:08;95366.78;;;34.03;50.25
46379;BME280;32084;42.254;22.744;2023-07-16T11:08:34;95371.44;;;34.08;48.38
46379;BME280;32084;42.254;22.744;2023-07-16T11:11:00;95371.91;;;34.29;50.11
46379;BME280;32084;42.254;22.744;2023-07-16T11:13:27;95371.69;;;34.39;46.85
46379;BME280;32084;42.254;22.744;2023-07-16T11:15:54;95357.09;;;34.33;47.21
46379;BME280;32084;42.254;22.744;2023-07-16T11:18:23;95357.25;;;34.09;47.27
46379;BME280;32084;42.254;22.744;2023-07-16T11:20:51;95355.41;;;34.04;46.69
46379;BME280;32084;42.254;22.744;2023-07-16T11:23:18;95362.94;;;34.18;44.89
46379;BME280;32084;42.254;22.744;2023-07-16T11:25:47;95356.28;;;34.19;45.68
46379;BME280;32084;42.254;22.744;2023-07-16T11:28:14;95351.53;;;34.19;45.21
46379;BME280;32084;42.254;22.744;2023-07-16T11:30:40;95353.09;;;34.26;47.54
46379;BME280;32084;42.254;22.744;2023-07-16T11:33:12;95353.91;;;34.26;44.22
46379;BME280;32084;42.254;22.744;2023-07-16T11:35:38;95349.06;;;34.18;48.59
46379;BME280;32084;42.254;22.744;2023-07-16T11:38:05;95345.31;;;34.09;45.66
46379;BME280;32084;42.254;22.744;2023-07-16T11:40:33;95346.63;;;34.30;46.56
46379;BME280;32084;42.254;22.744;2023-07-16T11:43:07;95348.59;;;34.44;46.29
46379;BME280;32084;42.254;22.744;2023-07-16T11:45:33;95340.47;;;34.47;43.05
46379;BME280;32084;42.254;22.744;2023-07-16T11:47:59;95346.41;;;34.54;45.83
46379;BME280;32084;42.254;22.744;2023-07-16T11:50:25;95335.31;;;34.40;47.04
46379;BME280;32084;42.254;22.744;2023-07-16T11:52:55;95347.22;;;34.27;43.17
46379;BME280;32084;42.254;22.744;2023-07-16T11:55:21;95331.22;;;34.38;46.79
46379;BME280;32084;42.254;22.744;2023-07-16T11:57:48;95340.03;;;34.26;44.12
46379;BME280;32084;42.254;22.744;2023-07-16T12:00:14;95340.34;;;34.25;44.14
46379;BME280;32084;42.254;22.744;2023-07-16T12:02:40;95345.28;;;34.28;44.66
46379;BME280;32084;42.254;22.744;2023-07-16T12:05:06;95342.91;;;34.35;43.51
46379;BME280;32084;42.254;22.744;2023-07-16T12:09:58;95333.47;;;34.36;44.20
46379;BME280;32084;42.254;22.744;2023-07-16T12:12:24;95332.84;;;34.25;43.74
46379;BME280;32084;42.254;22.744;2023-07-16T12:14:51;95342.06;;;34.20;43.10
46379;BME280;32084;42.254;22.744;2023-07-16T12:17:17;95337.41;;;34.02;41.24
46379;BME280;32084;42.254;22.744;2023-07-16T12:19:43;95322.81;;;33.96;44.13
46379;BME280;32084;42.254;22.744;2023-07-16T12:22:09;95335.56;;;33.97;42.02
46379;BME280;32084;42.254;22.744;2023-07-16T12:24:35;95330.72;;;34.03;42.71
46379;BME280;32084;42.254;22.744;2023-07-16T12:27:01;95331.25;;;34.05;43.47
46379;BME280;32084;42.254;22.744;2023-07-16T12:29:27;95333.81;;;34.01;40.92
46379;BME280;32084;42.254;22.744;2023-07-16T12:31:53;95327.44;;;34.01;42.56
46379;BME280;32084;42.254;22.744;2023-07-16T12:34:19;95323.63;;;33.97;41.31
46379;BME280;32084;42.254;22.744;2023-07-16T12:36:45;95332.38;;;34.04;39.90
46379;BME280;32084;42.254;22.744;2023-07-16T12:39:11;95327.44;;;34.15;39.95
46379;BME280;32084;42.254;22.744;2023-07-16T12:41:37;95317.59;;;34.09;41.31
46379;BME280;32084;42.254;22.744;2023-07-16T12:44:04;95321.00;;;34.06;41.41
46379;BME280;32084;42.254;22.744;2023-07-16T12:46:30;95330.59;;;34.27;39.81
46379;BME280;32084;42.254;22.744;2023-07-16T12:48:56;95325.53;;;34.29;39.60
46379;BME280;32084;42.254;22.744;2023-07-16T12:51:22;95317.81;;;34.26;40.73
46379;BME280;32084;42.254;22.744;2023-07-16T12:53:48;95317.75;;;34.17;40.87
46379;BME280;32084;42.254;22.744;2023-07-16T12:56:14;95314.16;;;34.17;44.24
46379;BME280;32084;42.254;22.744;2023-07-16T12:58:40;95316.13;;;33.97;41.76
46379;BME280;32084;42.254;22.744;2023-07-16T13:01:06;95313.28;;;34.02;42.12